Time;durP1;ratioP1;P1;durP2;ratioP2;P2;SDS_P1;SDS_P2;PMS_P1;PMS_P2;Temp;Humidity;BMP_temperature;BMP_pressure;BME280_temperature;BME280_humidity;BME280_pressure;Samples;Min_cycle;Max_cycle;Signal;HPM_P1;HPM_P2
2023/08/25 00:02:05;;;;;;;;;;;17.60;75.90;;;;;;4176195;28;19964;-84
2023/08/25 00:04:26;;;;;;;;;;;17.60;75.70;;;;;;4167464;28;19992;-84
2023/08/25 00:06:46;;;;;;;;;;;17.60;75.50;;;;;;4165567;28;19960;-84
2023/08/25 00:09:07;;;;;;;;;;;17.60;76.20;;;;;;4167045;28;19944;-84
2023/08/25 00:11:27;;;;;;;;;;;17.60;76.10;;;;;;4155889;28;20008;-83
2023/08/25 00:13:48;;;;;;;;;;;17.60;76.40;;;;;;4169311;28;20000;-84
2023/08/25 00:16:09;;;;;;;;;;;17.60;76.00;;;;;;4162861;28;19964;-84
2023/08/25 00:18:10;;;;;;;;;;;17.60;75.60;;;;;;4170951;28;19929;-84
2023/08/25 00:20:12;;;;;;;;;;;17.60;75.50;;;;;;4168984;28;19970;-85
2023/08/25 00:22:12;;;;;;;;;;;17.60;75.10;;;;;;4164579;28;19944;-84
2023/08/25 00:24:13;;;;;;;;;;;17.60;75.50;;;;;;4165962;28;19917;-84
2023/08/25 00:26:15;;;;;;;;;;;17.60;75.40;;;;;;4169321;28;19919;-84
2023/08/25 00:28:16;;;;;;;;;;;17.60;75.60;;;;;;4170168;28;19971;-84
2023/08/25 00:30:17;;;;;;;;;;;17.60;75.30;;;;;;4172474;28;19944;-85
2023/08/25 00:32:18;;;;;;;;;;;17.60;75.60;;;;;;4185424;28;19923;-83
2023/08/25 00:34:19;;;;;;;;;;;17.60;75.90;;;;;;4187508;28;19916;-84
2023/08/25 00:36:20;;;;;;;;;;;17.60;76.30;;;;;;4171124;28;19923;-84
2023/08/25 00:38:21;;;;;;;;;;;17.60;76.30;;;;;;4171473;28;19912;-84
2023/08/25 00:40:23;;;;;;;;;;;17.60;76.20;;;;;;4154538;28;19931;-85
2023/08/25 00:42:43;;;;;;;;;;;17.60;76.20;;;;;;4176509;28;19965;-84
2023/08/25 00:45:05;;;;;;;;;;;17.60;76.10;;;;;;4166911;28;20404;-86
2023/08/25 00:47:25;;;;;;;;;;;17.60;77.10;;;;;;4170158;28;20412;-85
2023/08/25 00:49:27;;;;;;;;;;;17.50;77.10;;;;;;4160913;28;19925;-84
2023/08/25 00:51:47;;;;;;;;;;;17.60;76.70;;;;;;4169807;28;19952;-84
2023/08/25 00:54:08;;;;;;;;;;;17.60;76.40;;;;;;4173971;28;20445;-84
2023/08/25 00:56:28;;;;;;;;;;;17.60;76.30;;;;;;4171631;28;19932;-84
2023/08/25 00:58:49;;;;;;;;;;;17.60;76.70;;;;;;4164564;28;19959;-83
2023/08/25 01:01:17;;;;;;;;;;;17.60;77.20;;;;;;4166249;28;20460;-83
2023/08/25 01:05:42;;;;;;;;;;;17.60;76.80;;;;;;4386212;22;19934;-84
2023/08/25 01:08:05;;;;;;;;;;;17.70;76.80;;;;;;4103182;28;19922;-84
2023/08/25 01:10:15;;;;;;;;;;;17.70;76.70;;;;;;4106985;28;21661;-84
2023/08/25 01:12:27;;;;;;;;;;;17.70;76.90;;;;;;4103750;28;20802;-84
2023/08/25 01:14:47;;;;;;;;;;;17.70;77.30;;;;;;4114407;28;19901;-84
2023/08/25 01:16:55;;;;;;;;;;;17.70;77.30;;;;;;4141439;28;19914;-84
2023/08/25 01:18:56;;;;;;;;;;;17.70;78.00;;;;;;4107247;28;20713;-84
2023/08/25 01:20:58;;;;;;;;;;;17.80;78.00;;;;;;4108892;28;19914;-84
2023/08/25 01:23:14;;;;;;;;;;;17.80;77.60;;;;;;4099338;28;19940;-84
2023/08/25 01:25:20;;;;;;;;;;;17.70;77.40;;;;;;4087699;28;20536;-84
2023/08/25 01:27:21;;;;;;;;;;;17.80;77.40;;;;;;4102789;28;20001;-84
2023/08/25 01:29:21;;;;;;;;;;;17.80;77.40;;;;;;4104656;28;19918;-84
2023/08/25 01:31:22;;;;;;;;;;;17.80;77.60;;;;;;4103015;28;19981;-84
2023/08/25 01:33:23;;;;;;;;;;;18.00;77.60;;;;;;4108592;28;19973;-84
2023/08/25 01:35:38;;;;;;;;;;;17.80;77.60;;;;;;4108613;28;19953;-84
2023/08/25 01:37:41;;;;;;;;;;;17.90;77.50;;;;;;4107748;28;19914;-84
2023/08/25 01:39:44;;;;;;;;;;;18.00;77.80;;;;;;4087348;28;20348;-84
2023/08/25 01:42:05;;;;;;;;;;;17.90;77.70;;;;;;4105959;28;19949;-84
2023/08/25 01:44:27;;;;;;;;;;;17.90;77.40;;;;;;4109791;28;20372;-84
2023/08/25 01:46:51;;;;;;;;;;;17.90;78.20;;;;;;4106720;28;19922;-84
2023/08/25 01:49:13;;;;;;;;;;;17.90;78.40;;;;;;4108136;28;20548;-84
2023/08/25 01:51:34;;;;;;;;;;;18.00;78.10;;;;;;4107898;28;20293;-84
2023/08/25 01:53:55;;;;;;;;;;;18.00;78.00;;;;;;4103675;28;20343;-85
2023/08/25 01:56:15;;;;;;;;;;;18.00;77.90;;;;;;4105504;28;19926;-84
2023/08/25 01:58:36;;;;;;;;;;;18.00;77.70;;;;;;4105149;28;20352;-85
2023/08/25 02:00:59;;;;;;;;;;;18.00;77.70;;;;;;4104334;28;19914;-84
2023/08/25 02:03:20;;;;;;;;;;;18.00;77.70;;;;;;4105146;28;20292;-83
2023/08/25 02:05:41;;;;;;;;;;;18.00;78.00;;;;;;4107345;28;20317;-84
2023/08/25 02:08:02;;;;;;;;;;;18.10;78.00;;;;;;4101928;28;20479;-84
2023/08/25 02:10:22;;;;;;;;;;;18.00;78.10;;;;;;4119492;28;19944;-83
2023/08/25 02:12:43;;;;;;;;;;;18.10;78.10;;;;;;4101873;28;19937;-84
2023/08/25 02:15:04;;;;;;;;;;;18.10;78.10;;;;;;4102703;28;20856;-84
2023/08/25 02:17:25;;;;;;;;;;;18.10;78.10;;;;;;4102516;28;20278;-83
2023/08/25 02:19:45;;;;;;;;;;;18.10;78.00;;;;;;4101393;28;20294;-84
2023/08/25 02:22:07;;;;;;;;;;;18.10;78.40;;;;;;4105379;28;20382;-84
2023/08/25 02:24:27;;;;;;;;;;;18.10;78.40;;;;;;4107282;28;20292;-83
2023/08/25 02:26:28;;;;;;;;;;;18.10;78.20;;;;;;4102375;28;19985;-83
2023/08/25 02:28:28;;;;;;;;;;;18.20;78.10;;;;;;4103671;28;19918;-83
2023/08/25 02:30:30;;;;;;;;;;;18.20;78.10;;;;;;4090299;28;19973;-84
2023/08/25 02:32:31;;;;;;;;;;;18.10;78.10;;;;;;4104193;28;19992;-84
2023/08/25 02:34:31;;;;;;;;;;;18.20;78.00;;;;;;4105761;28;19950;-84
2023/08/25 02:36:32;;;;;;;;;;;18.20;78.00;;;;;;4105808;28;19918;-84
2023/08/25 02:38:32;;;;;;;;;;;18.20;78.00;;;;;;4116905;28;19917;-84
2023/08/25 02:40:33;;;;;;;;;;;18.20;78.00;;;;;;4106202;28;19914;-84
2023/08/25 02:42:34;;;;;;;;;;;18.20;77.90;;;;;;4104947;28;19918;-83
2023/08/25 02:44:34;;;;;;;;;;;18.20;77.90;;;;;;4087375;28;19973;-83
2023/08/25 02:46:35;;;;;;;;;;;18.20;78.00;;;;;;4102937;28;19910;-84
2023/08/25 02:48:36;;;;;;;;;;;18.20;77.90;;;;;;4085002;28;20021;-85
2023/08/25 02:50:36;;;;;;;;;;;18.20;77.80;;;;;;4102056;28;19926;-84
2023/08/25 02:52:37;;;;;;;;;;;18.20;77.80;;;;;;4114142;28;19922;-84
2023/08/25 02:54:37;;;;;;;;;;;18.20;77.80;;;;;;4086942;28;20021;-83
2023/08/25 02:56:42;;;;;;;;;;;18.30;77.90;;;;;;4108215;28;20105;-84
2023/08/25 02:58:42;;;;;;;;;;;18.20;77.90;;;;;;4103716;28;19957;-83
2023/08/25 03:00:43;;;;;;;;;;;18.20;77.90;;;;;;4116879;28;20438;-84
2023/08/25 03:02:44;;;;;;;;;;;18.20;77.80;;;;;;4107069;28;20406;-84
2023/08/25 03:04:44;;;;;;;;;;;18.30;77.90;;;;;;4104168;28;20025;-84
2023/08/25 03:06:45;;;;;;;;;;;18.20;77.80;;;;;;4121532;28;19914;-84
2023/08/25 03:08:45;;;;;;;;;;;18.20;77.80;;;;;;4125577;28;19969;-83
2023/08/25 03:10:46;;;;;;;;;;;18.20;77.70;;;;;;4128103;28;19915;-84
2023/08/25 03:12:47;;;;;;;;;;;18.20;77.70;;;;;;4127316;28;19961;-84
2023/08/25 03:14:48;;;;;;;;;;;18.20;77.80;;;;;;4109524;28;19925;-84
2023/08/25 03:16:49;;;;;;;;;;;18.20;78.20;;;;;;4108162;28;20369;-84
2023/08/25 03:18:50;;;;;;;;;;;18.20;78.20;;;;;;4092901;28;19923;-83
2023/08/25 03:20:51;;;;;;;;;;;18.20;78.00;;;;;;4121340;28;19925;-83
2023/08/25 03:22:54;;;;;;;;;;;18.20;78.00;;;;;;4104943;28;19961;-84
2023/08/25 03:24:55;;;;;;;;;;;18.20;77.90;;;;;;4121761;28;20008;-84
2023/08/25 03:26:57;;;;;;;;;;;18.20;77.90;;;;;;4106333;28;19929;-84
2023/08/25 03:28:58;;;;;;;;;;;18.20;78.00;;;;;;4106362;28;19951;-84
2023/08/25 03:31:19;;;;;;;;;;;18.30;78.20;;;;;;4107524;28;19961;-84
2023/08/25 03:33:40;;;;;;;;;;;18.20;78.20;;;;;;4101482;28;19918;-83
2023/08/25 03:36:00;;;;;;;;;;;18.20;78.30;;;;;;4113701;28;19926;-83
2023/08/25 03:38:21;;;;;;;;;;;18.30;78.50;;;;;;4108598;28;19918;-82
2023/08/25 03:40:43;;;;;;;;;;;18.30;78.50;;;;;;4122327;28;20001;-84
2023/08/25 03:43:03;;;;;;;;;;;18.30;78.60;;;;;;4118304;28;19922;-83
2023/08/25 03:45:24;;;;;;;;;;;18.30;78.60;;;;;;4108487;28;20047;-83
2023/08/25 03:47:44;;;;;;;;;;;18.30;78.60;;;;;;4108170;28;19975;-84
2023/08/25 03:50:05;;;;;;;;;;;18.30;78.60;;;;;;4109947;28;20034;-84
2023/08/25 03:52:26;;;;;;;;;;;18.30;78.80;;;;;;4109398;28;19963;-84
2023/08/25 03:54:35;;;;;;;;;;;18.30;78.60;;;;;;4109573;28;20355;-83
2023/08/25 03:56:36;;;;;;;;;;;18.40;78.70;;;;;;4107677;28;19975;-84
2023/08/25 03:58:37;;;;;;;;;;;18.40;78.70;;;;;;4120859;28;20540;-84
2023/08/25 04:00:37;;;;;;;;;;;18.40;78.80;;;;;;4106110;28;19920;-83
2023/08/25 04:02:39;;;;;;;;;;;18.40;78.70;;;;;;4092654;28;20517;-83
2023/08/25 04:04:40;;;;;;;;;;;18.50;78.80;;;;;;4132916;28;19910;-84
2023/08/25 04:06:41;;;;;;;;;;;18.40;78.90;;;;;;4114372;28;19926;-83
2023/08/25 04:08:42;;;;;;;;;;;18.40;78.90;;;;;;4116407;28;20323;-83
2023/08/25 04:10:43;;;;;;;;;;;18.40;79.10;;;;;;4111252;28;19922;-83
2023/08/25 04:12:44;;;;;;;;;;;18.40;79.90;;;;;;4108538;28;19918;-83
2023/08/25 04:14:46;;;;;;;;;;;18.40;78.90;;;;;;4110182;28;20288;-82
2023/08/25 04:17:06;;;;;;;;;;;18.40;79.00;;;;;;4110536;28;19914;-82
2023/08/25 04:19:27;;;;;;;;;;;18.40;78.80;;;;;;4109796;28;19960;-83
2023/08/25 04:21:48;;;;;;;;;;;18.40;78.90;;;;;;4110431;28;19936;-84
2023/08/25 04:24:09;;;;;;;;;;;18.40;78.80;;;;;;4107542;28;19929;-84
2023/08/25 04:26:29;;;;;;;;;;;18.40;79.40;;;;;;4108971;28;19917;-82
2023/08/25 04:28:50;;;;;;;;;;;18.40;79.10;;;;;;4105562;28;19914;-83
2023/08/25 04:31:10;;;;;;;;;;;18.40;79.40;;;;;;4122352;28;19917;-83
2023/08/25 04:33:31;;;;;;;;;;;18.40;79.60;;;;;;4122912;28;19922;-82
2023/08/25 04:35:51;;;;;;;;;;;18.40;79.50;;;;;;4108939;28;19925;-83
2023/08/25 04:37:52;;;;;;;;;;;18.50;79.20;;;;;;4112822;28;20021;-83
2023/08/25 04:39:55;;;;;;;;;;;18.40;79.40;;;;;;4098397;28;19965;-83
2023/08/25 04:41:55;;;;;;;;;;;18.40;79.20;;;;;;4092322;28;19914;-83
2023/08/25 04:44:16;;;;;;;;;;;18.40;79.10;;;;;;4110684;28;19917;-83
2023/08/25 04:46:36;;;;;;;;;;;18.40;79.30;;;;;;4105262;28;19914;-84
2023/08/25 04:48:45;;;;;;;;;;;18.40;79.50;;;;;;4110317;28;19953;-83
2023/08/25 04:51:06;;;;;;;;;;;18.40;79.50;;;;;;4107249;28;19922;-82
2023/08/25 04:53:27;;;;;;;;;;;18.40;79.20;;;;;;4107511;28;19986;-83
2023/08/25 04:55:27;;;;;;;;;;;18.40;79.00;;;;;;4112469;28;20388;-83
2023/08/25 04:57:28;;;;;;;;;;;18.40;78.90;;;;;;4107624;28;19921;-82
2023/08/25 04:59:28;;;;;;;;;;;18.40;79.40;;;;;;4122047;28;19973;-82
2023/08/25 05:01:29;;;;;;;;;;;18.30;79.40;;;;;;4108108;28;19910;-83
2023/08/25 05:03:29;;;;;;;;;;;18.40;78.70;;;;;;4123202;28;19918;-83
2023/08/25 05:05:30;;;;;;;;;;;18.40;79.20;;;;;;4109816;28;19977;-83
2023/08/25 05:07:30;;;;;;;;;;;18.30;79.40;;;;;;4108003;28;19919;-83
2023/08/25 05:09:31;;;;;;;;;;;18.40;79.50;;;;;;4125182;28;19910;-84
2023/08/25 05:11:34;;;;;;;;;;;18.40;78.20;;;;;;4104959;28;20350;-82
2023/08/25 05:13:34;;;;;;;;;;;18.40;77.90;;;;;;4091037;28;19986;-85
2023/08/25 05:15:35;;;;;;;;;;;18.40;77.90;;;;;;4098343;28;19918;-84
2023/08/25 05:17:35;;;;;;;;;;;18.30;77.80;;;;;;4107350;28;19973;-83
2023/08/25 05:19:56;;;;;;;;;;;18.40;77.80;;;;;;4121686;28;20058;-84
2023/08/25 05:22:15;;;;;;;;;;;18.40;77.90;;;;;;4096699;28;19942;-82
2023/08/25 05:24:20;;;;;;;;;;;18.40;77.90;;;;;;4106724;28;20372;-84
2023/08/25 05:26:41;;;;;;;;;;;18.30;77.80;;;;;;4104832;28;19921;-82
2023/08/25 05:28:43;;;;;;;;;;;18.40;77.90;;;;;;4119460;28;19921;-83
2023/08/25 05:31:03;;;;;;;;;;;18.40;77.80;;;;;;4106562;28;19918;-85
2023/08/25 05:33:24;;;;;;;;;;;18.40;77.90;;;;;;4107010;28;19922;-83
2023/08/25 05:35:44;;;;;;;;;;;18.40;78.20;;;;;;4104937;28;20004;-83
2023/08/25 05:38:05;;;;;;;;;;;18.50;78.50;;;;;;4116207;28;19917;-83
2023/08/25 05:40:26;;;;;;;;;;;18.40;78.40;;;;;;4103434;28;19915;-84
2023/08/25 05:42:46;;;;;;;;;;;18.50;78.50;;;;;;4100494;28;19914;-82
2023/08/25 05:45:07;;;;;;;;;;;18.50;78.80;;;;;;4101616;28;20109;-83
2023/08/25 05:47:28;;;;;;;;;;;18.50;79.10;;;;;;4105774;28;19942;-84
2023/08/25 05:49:29;;;;;;;;;;;18.50;79.20;;;;;;4102882;28;20376;-83
2023/08/25 05:51:30;;;;;;;;;;;18.60;79.40;;;;;;4119800;28;19910;-83
2023/08/25 05:53:30;;;;;;;;;;;18.60;80.00;;;;;;4118522;28;19983;-83
2023/08/25 05:55:31;;;;;;;;;;;18.50;79.60;;;;;;4106575;28;20000;-82
2023/08/25 05:57:32;;;;;;;;;;;18.60;79.80;;;;;;4100853;28;20000;-83
2023/08/25 05:59:32;;;;;;;;;;;18.70;79.90;;;;;;4110363;28;19926;-84
2023/08/25 06:01:33;;;;;;;;;;;18.70;79.80;;;;;;4104909;28;19910;-84
2023/08/25 06:03:33;;;;;;;;;;;18.70;80.00;;;;;;4106167;28;20004;-83
2023/08/25 06:05:34;;;;;;;;;;;18.70;79.80;;;;;;4087949;28;19958;-83
2023/08/25 06:07:35;;;;;;;;;;;18.80;79.70;;;;;;4117909;28;19956;-83
2023/08/25 06:09:35;;;;;;;;;;;18.80;79.70;;;;;;4119032;28;19910;-83
2023/08/25 06:11:36;;;;;;;;;;;18.80;80.10;;;;;;4106686;28;19929;-84
2023/08/25 06:13:37;;;;;;;;;;;18.80;80.20;;;;;;4103708;28;19968;-84
2023/08/25 06:15:38;;;;;;;;;;;18.80;79.90;;;;;;4112956;28;19918;-84
2023/08/25 06:17:39;;;;;;;;;;;18.90;79.90;;;;;;4097945;28;19923;-84
2023/08/25 06:19:40;;;;;;;;;;;18.90;80.00;;;;;;4098862;28;19972;-84
2023/08/25 06:21:41;;;;;;;;;;;18.90;79.70;;;;;;4099771;28;19998;-84
2023/08/25 06:23:41;;;;;;;;;;;18.90;79.60;;;;;;4103288;28;20310;-84
2023/08/25 06:25:43;;;;;;;;;;;18.90;79.70;;;;;;4102879;28;22875;-84
2023/08/25 06:27:44;;;;;;;;;;;18.90;79.70;;;;;;4104053;28;19918;-85
2023/08/25 06:29:45;;;;;;;;;;;18.90;79.60;;;;;;4114545;28;20311;-84
2023/08/25 06:31:46;;;;;;;;;;;18.90;79.50;;;;;;4101379;28;19910;-84
2023/08/25 06:33:48;;;;;;;;;;;18.90;79.50;;;;;;4116048;28;20024;-85
2023/08/25 06:36:09;;;;;;;;;;;19.00;79.40;;;;;;4098476;28;19933;-84
2023/08/25 06:38:09;;;;;;;;;;;19.00;79.60;;;;;;4101220;28;19914;-84
2023/08/25 06:40:30;;;;;;;;;;;19.00;79.70;;;;;;4101700;28;20001;-84
2023/08/25 06:42:50;;;;;;;;;;;19.00;79.90;;;;;;4101620;28;19960;-83
2023/08/25 06:45:11;;;;;;;;;;;19.10;80.20;;;;;;4100360;28;20316;-84
2023/08/25 06:47:32;;;;;;;;;;;19.10;80.30;;;;;;4100063;28;19953;-84
2023/08/25 06:49:53;;;;;;;;;;;19.10;80.30;;;;;;4101539;28;19957;-83
2023/08/25 06:52:13;;;;;;;;;;;19.10;80.60;;;;;;4100249;28;19925;-83
2023/08/25 06:54:16;;;;;;;;;;;19.10;80.70;;;;;;4106007;28;20471;-84
2023/08/25 06:56:36;;;;;;;;;;;19.20;80.50;;;;;;4117830;28;20110;-83
2023/08/25 06:58:56;;;;;;;;;;;19.20;80.50;;;;;;4121316;28;19922;-84
2023/08/25 07:01:18;;;;;;;;;;;19.20;80.40;;;;;;4101929;28;19953;-85
2023/08/25 07:03:39;;;;;;;;;;;19.20;80.30;;;;;;4103693;28;19918;-84
2023/08/25 07:05:59;;;;;;;;;;;19.30;80.50;;;;;;4099804;28;19926;-84
2023/08/25 07:08:20;;;;;;;;;;;19.30;80.20;;;;;;4100212;28;20009;-84
2023/08/25 07:10:44;;;;;;;;;;;19.30;80.00;;;;;;4105027;28;19986;-85
2023/08/25 07:13:05;;;;;;;;;;;19.50;80.30;;;;;;4104426;28;20047;-84
2023/08/25 07:15:23;;;;;;;;;;;19.30;80.30;;;;;;4112662;28;19926;-83
2023/08/25 07:17:44;;;;;;;;;;;19.40;80.10;;;;;;4106175;28;19915;-83
2023/08/25 07:20:05;;;;;;;;;;;19.50;80.20;;;;;;4105010;28;19934;-84
2023/08/25 07:22:25;;;;;;;;;;;19.50;80.00;;;;;;4102099;28;19917;-83
2023/08/25 07:24:46;;;;;;;;;;;19.50;80.40;;;;;;4101505;28;19914;-83
2023/08/25 07:27:07;;;;;;;;;;;19.60;80.80;;;;;;4102430;28;20023;-84
2023/08/25 07:29:27;;;;;;;;;;;19.60;80.80;;;;;;4105679;28;19953;-84
2023/08/25 07:31:48;;;;;;;;;;;19.80;81.30;;;;;;4107856;28;19961;-84
2023/08/25 07:34:09;;;;;;;;;;;19.80;80.80;;;;;;4104589;28;19953;-84
2023/08/25 07:36:29;;;;;;;;;;;19.80;80.60;;;;;;4105489;28;19930;-84
2023/08/25 07:38:50;;;;;;;;;;;19.80;80.70;;;;;;4107064;28;19926;-83
2023/08/25 07:40:51;;;;;;;;;;;19.90;81.10;;;;;;4104453;28;19940;-84
2023/08/25 07:42:51;;;;;;;;;;;20.00;81.30;;;;;;4109471;28;19918;-84
2023/08/25 07:44:52;;;;;;;;;;;20.10;81.10;;;;;;4125860;28;19933;-83
2023/08/25 07:46:52;;;;;;;;;;;20.10;80.90;;;;;;4124150;28;19925;-82
2023/08/25 07:48:53;;;;;;;;;;;20.20;81.50;;;;;;4127561;28;19913;-84
2023/08/25 07:50:54;;;;;;;;;;;20.20;81.70;;;;;;4126933;28;19922;-85
2023/08/25 07:52:55;;;;;;;;;;;20.30;81.50;;;;;;4138985;28;20032;-83
2023/08/25 07:54:55;;;;;;;;;;;20.40;81.90;;;;;;4137538;28;19921;-83
2023/08/25 07:56:56;;;;;;;;;;;20.40;81.60;;;;;;4122695;28;19910;-84
2023/08/25 07:58:57;;;;;;;;;;;20.60;81.80;;;;;;4123836;28;19914;-83
2023/08/25 08:01:17;;;;;;;;;;;20.60;81.60;;;;;;4121542;28;19937;-84
2023/08/25 08:03:19;;;;;;;;;;;20.70;81.00;;;;;;4122410;28;19946;-84
2023/08/25 08:05:39;;;;;;;;;;;20.70;80.70;;;;;;4105412;28;19932;-84
2023/08/25 08:08:00;;;;;;;;;;;20.80;79.80;;;;;;4106236;28;19937;-84
2023/08/25 08:10:21;;;;;;;;;;;20.90;79.40;;;;;;4102809;28;19994;-83
2023/08/25 08:12:42;;;;;;;;;;;21.00;78.90;;;;;;4104014;28;19960;-82
2023/08/25 08:15:04;;;;;;;;;;;21.10;78.50;;;;;;4104652;28;19996;-83
2023/08/25 08:17:25;;;;;;;;;;;21.10;78.20;;;;;;4100603;28;19919;-83
2023/08/25 08:19:46;;;;;;;;;;;21.20;77.60;;;;;;4097545;28;19917;-83
2023/08/25 08:22:06;;;;;;;;;;;21.10;77.40;;;;;;4100593;28;19926;-83
2023/08/25 08:24:27;;;;;;;;;;;21.20;77.90;;;;;;4101793;28;19938;-84
2023/08/25 08:26:29;;;;;;;;;;;21.20;78.10;;;;;;4120342;28;20355;-82
2023/08/25 08:28:30;;;;;;;;;;;21.30;77.50;;;;;;4107637;28;19957;-83
2023/08/25 08:30:31;;;;;;;;;;;21.30;76.80;;;;;;4121234;28;20312;-83
2023/08/25 08:32:36;;;;;;;;;;;21.30;76.40;;;;;;4107781;28;19997;-85
2023/08/25 08:34:57;;;;;;;;;;;21.30;76.50;;;;;;4106183;28;19973;-84
2023/08/25 08:36:59;;;;;;;;;;;21.40;76.20;;;;;;4106409;28;19946;-83
2023/08/25 08:39:20;;;;;;;;;;;21.30;76.20;;;;;;4106044;28;19972;-84
2023/08/25 08:41:43;;;;;;;;;;;21.40;76.00;;;;;;4100910;28;19922;-83
2023/08/25 08:44:05;;;;;;;;;;;21.40;75.80;;;;;;4102489;28;19926;-84
2023/08/25 08:46:27;;;;;;;;;;;21.50;75.70;;;;;;4097329;28;20303;-83
2023/08/25 08:48:49;;;;;;;;;;;21.50;75.80;;;;;;4104224;28;19914;-84
2023/08/25 08:51:10;;;;;;;;;;;21.50;75.50;;;;;;4103634;28;19914;-84
2023/08/25 08:53:31;;;;;;;;;;;21.60;75.40;;;;;;4102895;28;19921;-83
2023/08/25 08:55:53;;;;;;;;;;;21.70;75.40;;;;;;4102891;28;20249;-83
2023/08/25 08:58:15;;;;;;;;;;;21.70;75.00;;;;;;4112515;28;19922;-84
2023/08/25 09:00:37;;;;;;;;;;;21.70;75.10;;;;;;4103456;28;19922;-83
2023/08/25 09:02:38;;;;;;;;;;;21.80;75.10;;;;;;4103773;28;20443;-83
2023/08/25 09:04:39;;;;;;;;;;;21.90;74.40;;;;;;4102979;28;19972;-84
2023/08/25 09:06:41;;;;;;;;;;;21.90;74.20;;;;;;4100209;28;19922;-83
2023/08/25 09:08:43;;;;;;;;;;;21.90;74.20;;;;;;4104061;28;19926;-83
2023/08/25 09:10:48;;;;;;;;;;;22.00;74.10;;;;;;4088053;28;19964;-84
2023/08/25 09:13:09;;;;;;;;;;;22.00;74.20;;;;;;4104764;28;19914;-84
2023/08/25 09:15:31;;;;;;;;;;;22.10;74.10;;;;;;4100477;28;19980;-83
2023/08/25 09:18:02;;;;;;;;;;;22.10;73.20;;;;;;4116446;28;19918;-83
2023/08/25 09:20:22;;;;;;;;;;;22.20;72.70;;;;;;4102234;28;20016;-83
2023/08/25 09:22:23;;;;;;;;;;;22.20;71.80;;;;;;4115296;28;19925;-84
2023/08/25 09:24:43;;;;;;;;;;;22.20;71.70;;;;;;4109696;28;19918;-82
2023/08/25 09:27:04;;;;;;;;;;;22.10;71.70;;;;;;4103366;28;19991;-83
2023/08/25 09:29:26;;;;;;;;;;;22.10;71.80;;;;;;4104198;28;19923;-83
2023/08/25 09:31:46;;;;;;;;;;;22.10;71.80;;;;;;4099643;28;19922;-84
2023/08/25 09:34:16;;;;;;;;;;;22.10;71.90;;;;;;4103429;28;19965;-84
2023/08/25 09:37:09;;;;;;;;;;;22.10;70.80;;;;;;4100966;28;19960;-85
2023/08/25 09:39:40;;;;;;;;;;;22.10;69.80;;;;;;4101070;28;19918;-83
2023/08/25 09:42:06;;;;;;;;;;;22.20;70.70;;;;;;4102728;28;19925;-84
2023/08/25 09:44:27;;;;;;;;;;;22.20;70.90;;;;;;4104771;28;19968;-84
2023/08/25 09:46:49;;;;;;;;;;;22.30;70.90;;;;;;4104102;28;19945;-84
2023/08/25 09:48:52;;;;;;;;;;;22.30;70.80;;;;;;4105032;28;19947;-83
2023/08/25 09:50:52;;;;;;;;;;;22.30;70.70;;;;;;4100357;28;19925;-84
2023/08/25 09:52:54;;;;;;;;;;;22.30;69.80;;;;;;4101146;28;19922;-84
2023/08/25 09:54:54;;;;;;;;;;;22.30;70.30;;;;;;4118765;28;19988;-83
2023/08/25 09:56:55;;;;;;;;;;;22.40;70.40;;;;;;4098189;28;19926;-83
2023/08/25 09:58:56;;;;;;;;;;;22.40;70.40;;;;;;4116129;28;19917;-83
2023/08/25 10:01:16;;;;;;;;;;;22.50;70.60;;;;;;4106997;28;19914;-83
2023/08/25 10:03:37;;;;;;;;;;;22.60;69.80;;;;;;4114512;28;19922;-84
2023/08/25 10:06:00;;;;;;;;;;;22.50;69.70;;;;;;4115811;28;19922;-84
2023/08/25 10:08:22;;;;;;;;;;;22.60;69.20;;;;;;4120325;28;19919;-84
2023/08/25 10:10:44;;;;;;;;;;;22.70;69.20;;;;;;4111505;28;19930;-83
2023/08/25 10:13:04;;;;;;;;;;;22.80;69.60;;;;;;4107190;28;19969;-84
2023/08/25 10:15:07;;;;;;;;;;;22.80;69.00;;;;;;4102726;28;19918;-84
2023/08/25 10:17:09;;;;;;;;;;;22.90;68.80;;;;;;4119969;28;20013;-83
2023/08/25 10:19:14;;;;;;;;;;;22.90;68.30;;;;;;4105445;28;19984;-84
2023/08/25 10:21:35;;;;;;;;;;;22.90;68.60;;;;;;4103443;28;20431;-84
2023/08/25 10:23:57;;;;;;;;;;;23.00;67.00;;;;;;4100833;28;19910;-85
2023/08/25 10:26:19;;;;;;;;;;;23.10;68.10;;;;;;4098730;28;19918;-84
2023/08/25 10:28:39;;;;;;;;;;;23.10;68.10;;;;;;4102010;28;19918;-84
2023/08/25 10:31:00;;;;;;;;;;;23.10;67.70;;;;;;4102677;28;19914;-85
2023/08/25 10:33:22;;;;;;;;;;;23.20;66.20;;;;;;4101982;28;19930;-84
2023/08/25 10:35:43;;;;;;;;;;;23.30;67.10;;;;;;4109707;28;19968;-84
2023/08/25 10:38:04;;;;;;;;;;;23.30;66.80;;;;;;4102523;28;19954;-85
2023/08/25 10:40:38;;;;;;;;;;;23.40;66.70;;;;;;4102353;28;19962;-84
2023/08/25 10:42:59;;;;;;;;;;;23.40;65.90;;;;;;4101587;28;20249;-84
2023/08/25 10:45:21;;;;;;;;;;;23.40;65.10;;;;;;4094775;28;19922;-84
2023/08/25 10:47:46;;;;;;;;;;;23.50;65.70;;;;;;4100220;28;20025;-86
2023/08/25 10:50:06;;;;;;;;;;;23.60;66.00;;;;;;4104275;28;19973;-84
2023/08/25 10:52:27;;;;;;;;;;;23.70;65.50;;;;;;4098364;28;20006;-84
2023/08/25 10:54:51;;;;;;;;;;;23.70;66.00;;;;;;4097556;28;20033;-86
2023/08/25 10:57:18;;;;;;;;;;;23.80;61.20;;;;;;4111983;28;19913;-85
2023/08/25 10:59:20;;;;;;;;;;;23.80;62.40;;;;;;4098252;28;19918;-85
2023/08/25 11:01:23;;;;;;;;;;;23.90;63.60;;;;;;4103320;28;19928;-84
2023/08/25 11:03:44;;;;;;;;;;;24.00;62.30;;;;;;4086770;28;20467;-84
2023/08/25 11:06:24;;;;;;;;;;;24.00;63.50;;;;;;4100208;28;19922;-86
2023/08/25 11:08:26;;;;;;;;;;;24.10;63.70;;;;;;4115839;28;19922;-85
2023/08/25 11:10:34;;;;;;;;;;;24.20;64.20;;;;;;4118974;28;19929;-84
2023/08/25 11:12:55;;;;;;;;;;;24.20;64.30;;;;;;4095148;28;19957;-85
2023/08/25 11:15:25;;;;;;;;;;;24.20;64.20;;;;;;4095994;28;20038;-87
2023/08/25 11:17:49;;;;;;;;;;;24.30;63.60;;;;;;4109565;28;19921;-84
2023/08/25 11:20:10;;;;;;;;;;;24.30;61.70;;;;;;4096937;28;19956;-85
2023/08/25 11:22:31;;;;;;;;;;;24.30;61.70;;;;;;4097253;28;19922;-84
2023/08/25 11:24:51;;;;;;;;;;;24.40;62.70;;;;;;4100584;28;19918;-84
2023/08/25 11:27:14;;;;;;;;;;;24.40;61.20;;;;;;4096530;28;20053;-86
2023/08/25 11:29:15;;;;;;;;;;;24.40;61.90;;;;;;4102037;28;19918;-85
2023/08/25 11:31:16;;;;;;;;;;;24.50;62.30;;;;;;4099075;28;19969;-85
2023/08/25 11:33:17;;;;;;;;;;;24.50;62.30;;;;;;4101330;28;20012;-84
2023/08/25 11:35:18;;;;;;;;;;;24.50;61.50;;;;;;4099301;28;19922;-84
2023/08/25 11:37:20;;;;;;;;;;;24.50;62.20;;;;;;4100703;28;19981;-84
2023/08/25 11:39:21;;;;;;;;;;;24.60;62.30;;;;;;4111111;28;19965;-85
2023/08/25 11:41:22;;;;;;;;;;;24.60;62.50;;;;;;4100050;28;19980;-84
2023/08/25 11:43:36;;;;;;;;;;;24.60;62.20;;;;;;4113271;28;19922;-85
2023/08/25 11:45:37;;;;;;;;;;;24.60;61.20;;;;;;4099754;28;19918;-85
2023/08/25 11:47:38;;;;;;;;;;;24.60;59.60;;;;;;4099645;28;19928;-85
2023/08/25 11:50:04;;;;;;;;;;;24.60;60.10;;;;;;4106561;28;19972;-85
2023/08/25 11:52:05;;;;;;;;;;;24.60;60.00;;;;;;4102534;28;20370;-85
2023/08/25 11:54:26;;;;;;;;;;;24.60;59.10;;;;;;4099305;28;19931;-85
2023/08/25 11:56:53;;;;;;;;;;;24.60;58.70;;;;;;4106094;28;20040;-85
2023/08/25 11:59:15;;;;;;;;;;;24.70;59.50;;;;;;4104150;28;19925;-85
2023/08/25 12:01:36;;;;;;;;;;;24.70;59.80;;;;;;4106555;28;19918;-85
2023/08/25 12:03:57;;;;;;;;;;;24.70;59.90;;;;;;4103215;28;19954;-85
2023/08/25 12:05:59;;;;;;;;;;;24.80;60.70;;;;;;4104868;28;19929;-85
2023/08/25 12:08:03;;;;;;;;;;;24.80;58.70;;;;;;4101262;28;20005;-84
2023/08/25 12:10:05;;;;;;;;;;;24.80;59.50;;;;;;4118425;28;19964;-85
2023/08/25 12:12:05;;;;;;;;;;;24.80;59.80;;;;;;4099472;28;20001;-85
2023/08/25 12:14:06;;;;;;;;;;;24.80;59.30;;;;;;4106102;28;19976;-84
2023/08/25 12:16:06;;;;;;;;;;;24.80;59.00;;;;;;4100060;28;19926;-84
2023/08/25 12:18:07;;;;;;;;;;;24.80;58.40;;;;;;4103118;28;19914;-85
2023/08/25 12:20:13;;;;;;;;;;;24.80;58.40;;;;;;4117058;28;19921;-86
2023/08/25 12:22:15;;;;;;;;;;;24.80;57.60;;;;;;4107051;28;19918;-87
2023/08/25 12:24:16;;;;;;;;;;;24.80;58.00;;;;;;4091182;28;19962;-85
2023/08/25 12:26:17;;;;;;;;;;;24.80;56.80;;;;;;4103927;28;19928;-85
2023/08/25 12:28:17;;;;;;;;;;;24.90;58.50;;;;;;4104310;28;19946;-84
2023/08/25 12:30:18;;;;;;;;;;;24.90;57.80;;;;;;4109500;28;19922;-85
2023/08/25 12:32:18;;;;;;;;;;;24.90;55.90;;;;;;4105882;28;19922;-85
2023/08/25 12:34:19;;;;;;;;;;;24.90;57.20;;;;;;4122760;28;19999;-87
2023/08/25 12:36:20;;;;;;;;;;;24.90;56.50;;;;;;4138838;28;19933;-86
2023/08/25 12:38:20;;;;;;;;;;;24.90;56.10;;;;;;4138116;28;19902;-88
2023/08/25 12:40:21;;;;;;;;;;;25.00;57.90;;;;;;4128441;28;19965;-87
2023/08/25 12:42:22;;;;;;;;;;;25.00;58.00;;;;;;4138868;28;19929;-84
2023/08/25 12:44:25;;;;;;;;;;;25.00;56.80;;;;;;4110445;28;19915;-87
2023/08/25 12:46:26;;;;;;;;;;;25.00;57.40;;;;;;4123721;28;19985;-89